Time;durP1;ratioP1;P1;durP2;ratioP2;P2;SDS_P1;SDS_P2;PMS_P1;PMS_P2;Temp;Humidity;BMP_temperature;BMP_pressure;BME280_temperature;BME280_humidity;BME280_pressure;Samples;Min_cycle;Max_cycle;Signal;HPM_P1;HPM_P2
2022/07/26 00:00:21;;;;;;;;;;;;;;;-144.99;100.00;61100.13;5050612;28;20678;-61
2022/07/26 00:02:48;;;;;;;;;;;;;;;-144.99;100.00;61100.13;5058105;28;20289;-61
2022/07/26 00:05:14;;;;;;;;;;;;;;;-144.99;100.00;61100.13;5055321;28;20002;-61
2022/07/26 00:07:41;;;;;;;;;;;;;;;-144.99;100.00;61100.13;5057891;28;20514;-65
2022/07/26 00:10:10;;;;;;;;;;;;;;;-144.99;100.00;61100.13;5063105;28;19989;-65
2022/07/26 00:12:36;;;;;;;;;;;;;;;-144.99;100.00;61100.13;5056189;28;19925;-60
2022/07/26 00:15:03;;;;;;;;;;;;;;;-144.99;100.00;61100.13;5056398;28;19929;-60
2022/07/26 00:17:29;;;;;;;;;;;;;;;-144.99;100.00;61100.13;5057664;28;20620;-64
2022/07/26 00:19:56;;;;;;;;;;;;;;;-144.99;100.00;61100.13;5058497;28;19929;-60
2022/07/26 00:22:35;;;;;;;;;;;;;;;-144.99;100.00;61100.13;5056872;28;19925;-60
2022/07/26 00:25:02;;;;;;;;;;;;;;;-144.99;100.00;61100.13;5051429;28;20390;-62
2022/07/26 00:27:30;;;;;;;;;;;;;;;-144.99;100.00;61100.13;5049400;28;20227;-62
2022/07/26 00:29:56;;;;;;;;;;;;;;;-144.99;100.00;61100.13;5050928;28;19986;-61
2022/07/26 00:32:23;;;;;;;;;;;;;;;-144.99;100.00;61100.13;5057853;28;19968;-61
2022/07/26 00:34:50;;;;;;;;;;;;;;;-144.99;100.00;61100.13;5049188;28;19928;-60
2022/07/26 00:37:17;;;;;;;;;;;;;;;-144.99;100.00;61100.13;5050911;28;19932;-61
2022/07/26 00:39:44;;;;;;;;;;;;;;;-144.99;100.00;61100.13;5054133;28;19925;-61
2022/07/26 00:42:10;;;;;;;;;;;;;;;-144.99;100.00;61100.13;5048499;28;19933;-61
2022/07/26 00:44:39;;;;;;;;;;;;;;;-144.99;100.00;61100.13;5048980;28;19924;-62
2022/07/26 00:47:06;;;;;;;;;;;;;;;-144.99;100.00;61100.13;5048433;28;19929;-63
2022/07/26 00:49:32;;;;;;;;;;;;;;;-144.99;100.00;61100.13;5063808;28;20393;-64
2022/07/26 00:51:59;;;;;;;;;;;;;;;-144.99;100.00;61100.13;5048256;28;19929;-64
2022/07/26 00:54:25;;;;;;;;;;;;;;;-144.99;100.00;61100.13;5048285;28;19924;-62
2022/07/26 00:56:52;;;;;;;;;;;;;;;-144.99;100.00;61100.13;5048134;28;20389;-65
2022/07/26 00:59:19;;;;;;;;;;;;;;;-144.99;100.00;61100.13;5036869;28;19925;-62
2022/07/26 01:01:47;;;;;;;;;;;;;;;-144.99;100.00;61100.13;5062374;28;20032;-62
2022/07/26 01:04:13;;;;;;;;;;;;;;;-144.99;100.00;61100.13;5059656;28;20330;-62
2022/07/26 01:06:40;;;;;;;;;;;;;;;-144.99;100.00;61100.13;5051542;28;19924;-62
2022/07/26 01:09:06;;;;;;;;;;;;;;;-144.99;100.00;61100.13;5057398;28;20308;-61
2022/07/26 01:11:33;;;;;;;;;;;;;;;-144.99;100.00;61100.13;5063969;28;19993;-62
2022/07/26 01:13:59;;;;;;;;;;;;;;;-144.99;100.00;61100.13;5059030;28;19967;-61
2022/07/26 01:16:26;;;;;;;;;;;;;;;-144.99;100.00;61100.13;5051739;28;20385;-63
2022/07/26 01:18:54;;;;;;;;;;;;;;;-144.99;100.00;61100.13;5051482;28;19990;-61
2022/07/26 01:21:21;;;;;;;;;;;;;;;-144.99;100.00;61100.13;5061507;28;19963;-61
2022/07/26 01:23:49;;;;;;;;;;;;;;;-144.99;100.00;61100.13;5050608;28;19972;-61
2022/07/26 01:26:16;;;;;;;;;;;;;;;-144.99;100.00;61100.13;5049034;28;19936;-61
2022/07/26 01:28:43;;;;;;;;;;;;;;;-144.99;100.00;61100.13;5056868;28;20419;-62
2022/07/26 01:31:10;;;;;;;;;;;;;;;-144.99;100.00;61100.13;5055931;28;19924;-65
2022/07/26 01:33:36;;;;;;;;;;;;;;;-144.99;100.00;61100.13;5049441;28;19994;-61
2022/07/26 01:36:03;;;;;;;;;;;;;;;-144.99;100.00;61100.13;5042103;28;19937;-62
2022/07/26 01:38:29;;;;;;;;;;;;;;;-144.99;100.00;61100.13;5057720;28;20923;-63
2022/07/26 01:40:57;;;;;;;;;;;;;;;-144.99;100.00;61100.13;5055057;28;20486;-61
2022/07/26 01:43:24;;;;;;;;;;;;;;;-144.99;100.00;61100.13;5054461;28;19925;-61
2022/07/26 01:45:50;;;;;;;;;;;;;;;-144.99;100.00;61100.13;5046557;28;20447;-61
2022/07/26 01:48:17;;;;;;;;;;;;;;;-144.99;100.00;61100.13;5056474;28;19924;-61
2022/07/26 01:50:43;;;;;;;;;;;;;;;-144.99;100.00;61100.13;5065679;28;20042;-61
2022/07/26 01:53:10;;;;;;;;;;;;;;;-144.99;100.00;61100.13;5053847;28;20021;-62
2022/07/26 01:55:36;;;;;;;;;;;;;;;-144.99;100.00;61100.13;5050985;28;19925;-62
2022/07/26 01:58:05;;;;;;;;;;;;;;;-144.99;100.00;61100.13;5046460;28;20031;-62
2022/07/26 02:00:31;;;;;;;;;;;;;;;-144.99;100.00;61100.13;5053647;28;20349;-61
2022/07/26 02:02:58;;;;;;;;;;;;;;;-144.99;100.00;61100.13;5061731;28;19974;-60
2022/07/26 02:05:24;;;;;;;;;;;;;;;-144.99;100.00;61100.13;5059157;28;19924;-61
2022/07/26 02:07:51;;;;;;;;;;;;;;;-144.99;100.00;61100.13;5061378;28;20363;-61
2022/07/26 02:10:17;;;;;;;;;;;;;;;-144.99;100.00;61100.13;5066317;28;19968;-61
2022/07/26 02:12:44;;;;;;;;;;;;;;;-144.99;100.00;61100.13;5059922;28;19931;-61
2022/07/26 02:15:13;;;;;;;;;;;;;;;-144.99;100.00;61100.13;5051251;28;19932;-59
2022/07/26 02:17:39;;;;;;;;;;;;;;;-144.99;100.00;61100.13;5057114;28;19925;-62
2022/07/26 02:20:07;;;;;;;;;;;;;;;-144.99;100.00;61100.13;5050876;28;19990;-62
2022/07/26 02:22:33;;;;;;;;;;;;;;;-144.99;100.00;61100.13;5051459;28;19960;-64
2022/07/26 02:25:00;;;;;;;;;;;;;;;-144.99;100.00;61100.13;5050914;28;19928;-66
2022/07/26 02:27:26;;;;;;;;;;;;;;;-144.99;100.00;61100.13;5062996;28;19986;-66
2022/07/26 02:29:53;;;;;;;;;;;;;;;-144.99;100.00;61100.13;5051945;28;20401;-61
2022/07/26 02:32:21;;;;;;;;;;;;;;;-144.99;100.00;61100.13;5059739;28;19961;-61
2022/07/26 02:34:47;;;;;;;;;;;;;;;-144.99;100.00;61100.13;5051003;28;20450;-61
2022/07/26 02:37:14;;;;;;;;;;;;;;;-144.99;100.00;61100.13;5046999;28;19928;-61
2022/07/26 02:39:40;;;;;;;;;;;;;;;-144.99;100.00;61100.13;5057331;28;19987;-61
2022/07/26 02:42:07;;;;;;;;;;;;;;;-144.99;100.00;61100.13;5050691;28;19945;-63
2022/07/26 02:44:34;;;;;;;;;;;;;;;-144.99;100.00;61100.13;5050898;28;20019;-63
2022/07/26 02:47:01;;;;;;;;;;;;;;;-144.99;100.00;61100.13;5049348;28;19928;-63
2022/07/26 02:49:28;;;;;;;;;;;;;;;-144.99;100.00;61100.13;5053736;28;20001;-64
2022/07/26 02:51:55;;;;;;;;;;;;;;;-144.99;100.00;61100.13;5038865;28;20431;-61
2022/07/26 02:54:21;;;;;;;;;;;;;;;-144.99;100.00;61100.13;5050749;28;19933;-62
2022/07/26 02:56:48;;;;;;;;;;;;;;;-144.99;100.00;61100.13;5050130;28;20405;-64
2022/07/26 02:59:14;;;;;;;;;;;;;;;-144.99;100.00;61100.13;5058918;22;19975;-69
2022/07/26 03:01:41;;;;;;;;;;;;;;;-144.99;100.00;61100.13;5023781;28;19926;-68
2022/07/26 03:04:07;;;;;;;;;;;;;;;-144.99;100.00;61100.13;5028638;28;20332;-67
2022/07/26 03:06:35;;;;;;;;;;;;;;;-144.99;100.00;61100.13;5030714;28;19925;-67
2022/07/26 03:09:02;;;;;;;;;;;;;;;-144.99;100.00;61100.13;5019597;28;20489;-67
2022/07/26 03:11:28;;;;;;;;;;;;;;;-144.99;100.00;61100.13;5006307;28;19926;-68
2022/07/26 03:13:55;;;;;;;;;;;;;;;-144.99;100.00;61100.13;5006502;28;19925;-67
2022/07/26 03:16:21;;;;;;;;;;;;;;;-144.99;100.00;61100.13;5008215;28;20473;-67
2022/07/26 03:18:48;;;;;;;;;;;;;;;-144.99;100.00;61100.13;5010487;28;19960;-68
2022/07/26 03:21:14;;;;;;;;;;;;;;;-144.99;100.00;61100.13;5010472;28;19952;-67
2022/07/26 03:23:42;;;;;;;;;;;;;;;-144.99;100.00;61100.13;5011318;28;19933;-67
2022/07/26 03:26:08;;;;;;;;;;;;;;;-144.99;100.00;61100.13;5012751;28;19979;-67
2022/07/26 03:28:35;;;;;;;;;;;;;;;-144.99;100.00;61100.13;5010639;28;20017;-63
2022/07/26 03:31:02;;;;;;;;;;;;;;;-144.99;100.00;61100.13;5004311;28;19969;-66
2022/07/26 03:33:28;;;;;;;;;;;;;;;-144.99;100.00;61100.13;5007078;28;20382;-67
2022/07/26 03:35:55;;;;;;;;;;;;;;;-144.99;100.00;61100.13;5008796;28;20437;-67
2022/07/26 03:38:21;;;;;;;;;;;;;;;-144.99;100.00;61100.13;5001140;28;20056;-65
2022/07/26 03:40:49;;;;;;;;;;;;;;;-144.99;100.00;61100.13;5010973;28;19965;-66
2022/07/26 03:43:15;;;;;;;;;;;;;;;-144.99;100.00;61100.13;5010302;28;19961;-65
2022/07/26 03:45:42;;;;;;;;;;;;;;;-144.99;100.00;61100.13;5010163;28;20020;-67
2022/07/26 03:48:08;;;;;;;;;;;;;;;-144.99;100.00;61100.13;5006294;28;20012;-65
2022/07/26 03:50:35;;;;;;;;;;;;;;;-144.99;100.00;61100.13;5004910;28;19980;-65
2022/07/26 03:53:02;;;;;;;;;;;;;;;-144.99;100.00;61100.13;5006659;28;20378;-66
2022/07/26 03:58:13;;;;;;;;;;;;;;;-144.99;100.00;61100.13;5006923;28;20287;-62
2022/07/26 04:00:40;;;;;;;;;;;;;;;-144.99;100.00;61100.13;5007709;28;19969;-61
2022/07/26 04:03:06;;;;;;;;;;;;;;;-144.99;100.00;61100.13;5010369;28;19972;-62
2022/07/26 04:05:33;;;;;;;;;;;;;;;-144.99;100.00;61100.13;5009696;28;20302;-60
2022/07/26 04:07:59;;;;;;;;;;;;;;;-144.99;100.00;61100.13;5008580;28;19971;-60
2022/07/26 04:10:26;;;;;;;;;;;;;;;-144.99;100.00;61100.13;5003197;28;19981;-60
2022/07/26 04:12:52;;;;;;;;;;;;;;;-144.99;100.00;61100.13;5009693;28;19976;-61
2022/07/26 04:15:20;;;;;;;;;;;;;;;-144.99;100.00;61100.13;5009915;28;19926;-67
2022/07/26 04:17:48;;;;;;;;;;;;;;;-144.99;100.00;61100.13;5008848;28;20234;-64
2022/07/26 04:20:14;;;;;;;;;;;;;;;-144.99;100.00;61100.13;5001789;28;19933;-64
2022/07/26 04:22:41;;;;;;;;;;;;;;;-144.99;100.00;61100.13;5009993;28;19972;-63
2022/07/26 04:25:08;;;;;;;;;;;;;;;-144.99;100.00;61100.13;5013774;28;20028;-66
2022/07/26 04:27:35;;;;;;;;;;;;;;;-144.99;100.00;61100.13;5008907;28;20018;-65
2022/07/26 04:30:02;;;;;;;;;;;;;;;-144.99;100.00;61100.13;5012225;28;20012;-64
2022/07/26 04:32:30;;;;;;;;;;;;;;;-144.99;100.00;61100.13;5009199;28;19965;-64
2022/07/26 04:34:56;;;;;;;;;;;;;;;-144.99;100.00;61100.13;5009825;28;19925;-65
2022/07/26 04:37:22;;;;;;;;;;;;;;;-144.99;100.00;61100.13;5009948;28;19925;-65
2022/07/26 04:39:49;;;;;;;;;;;;;;;-144.99;100.00;61100.13;5008558;28;20016;-65
2022/07/26 04:42:15;;;;;;;;;;;;;;;-144.99;100.00;61100.13;5009757;28;20016;-66
2022/07/26 04:44:42;;;;;;;;;;;;;;;-144.99;100.00;61100.13;5010009;28;19925;-65
2022/07/26 04:47:08;;;;;;;;;;;;;;;-144.99;100.00;61100.13;5008797;28;19926;-64
2022/07/26 04:49:36;;;;;;;;;;;;;;;-144.99;100.00;61100.13;5000739;28;20040;-67
2022/07/26 04:52:03;;;;;;;;;;;;;;;-144.99;100.00;61100.13;5001394;28;19980;-64
2022/07/26 04:54:29;;;;;;;;;;;;;;;-144.99;100.00;61100.13;5009964;28;20025;-67
2022/07/26 04:56:56;;;;;;;;;;;;;;;-144.99;100.00;61100.13;5010174;28;19969;-66
2022/07/26 04:59:22;;;;;;;;;;;;;;;-144.99;100.00;61100.13;5008390;28;19980;-64
2022/07/26 05:01:49;;;;;;;;;;;;;;;-144.99;100.00;61100.13;5003714;28;20003;-67
2022/07/26 05:04:15;;;;;;;;;;;;;;;-144.99;100.00;61100.13;5010205;28;19967;-67
2022/07/26 05:06:44;;;;;;;;;;;;;;;-144.99;100.00;61100.13;5009792;28;20032;-67
2022/07/26 05:09:10;;;;;;;;;;;;;;;-144.99;100.00;61100.13;5007217;28;20463;-68
2022/07/26 05:11:37;;;;;;;;;;;;;;;-144.99;100.00;61100.13;5009543;28;19937;-67
2022/07/26 05:14:03;;;;;;;;;;;;;;;-144.99;100.00;61100.13;5009993;28;19926;-67
2022/07/26 05:16:30;;;;;;;;;;;;;;;-144.99;100.00;61100.13;5009806;28;20032;-68
2022/07/26 05:18:56;;;;;;;;;;;;;;;-144.99;100.00;61100.13;5008406;28;19937;-68
2022/07/26 05:21:23;;;;;;;;;;;;;;;-144.99;100.00;61100.13;5006330;28;20021;-68
2022/07/26 05:23:51;;;;;;;;;;;;;;;-144.99;100.00;61100.13;4657200;28;9999866;-68
2022/07/26 05:26:17;;;;;;;;;;;;;;;-144.99;100.00;61100.13;5008179;28;19988;-68
2022/07/26 05:28:44;;;;;;;;;;;;;;;-144.99;100.00;61100.13;5008963;28;20031;-68
2022/07/26 05:31:10;;;;;;;;;;;;;;;-144.99;100.00;61100.13;5009063;28;20031;-66
2022/07/26 05:33:37;;;;;;;;;;;;;;;-144.99;100.00;61100.13;5010152;28;19926;-69
2022/07/26 05:36:03;;;;;;;;;;;;;;;-144.99;100.00;61100.13;5006120;28;20425;-69
2022/07/26 05:38:30;;;;;;;;;;;;;;;-144.99;100.00;61100.13;4999995;28;19934;-69
2022/07/26 05:40:58;;;;;;;;;;;;;;;-144.99;100.00;61100.13;5008939;28;19992;-69
2022/07/26 05:43:25;;;;;;;;;;;;;;;-144.99;100.00;61100.13;5009404;28;20457;-69
2022/07/26 05:45:51;;;;;;;;;;;;;;;-144.99;100.00;61100.13;5009462;28;19937;-70
2022/07/26 05:48:18;;;;;;;;;;;;;;;-144.99;100.00;61100.13;5005195;28;20166;-68
2022/07/26 05:50:44;;;;;;;;;;;;;;;-144.99;100.00;61100.13;5004527;28;20290;-70
2022/07/26 05:53:11;;;;;;;;;;;;;;;-144.99;100.00;61100.13;5010473;28;19979;-69
2022/07/26 05:55:37;;;;;;;;;;;;;;;-144.99;100.00;61100.13;5010978;28;20032;-70
2022/07/26 05:58:05;;;;;;;;;;;;;;;-144.99;100.00;61100.13;5008890;28;19925;-68
2022/07/26 06:00:32;;;;;;;;;;;;;;;-144.99;100.00;61100.13;5011091;28;19992;-70
2022/07/26 06:02:58;;;;;;;;;;;;;;;-144.99;100.00;61100.13;5012976;28;19929;-68
2022/07/26 06:05:25;;;;;;;;;;;;;;;-144.99;100.00;61100.13;5010671;28;19979;-71
2022/07/26 06:07:51;;;;;;;;;;;;;;;-144.99;100.00;61100.13;5008102;28;20003;-68
2022/07/26 06:10:18;;;;;;;;;;;;;;;-144.99;100.00;61100.13;5009567;28;19965;-69
2022/07/26 06:12:44;;;;;;;;;;;;;;;-144.99;100.00;61100.13;5010037;28;19975;-70
2022/07/26 06:15:12;;;;;;;;;;;;;;;-144.99;100.00;61100.13;5009495;28;19929;-68
2022/07/26 06:17:40;;;;;;;;;;;;;;;-144.99;100.00;61100.13;5008109;28;19969;-68
2022/07/26 06:20:07;;;;;;;;;;;;;;;-144.99;100.00;61100.13;5005291;28;20061;-68
2022/07/26 06:22:33;;;;;;;;;;;;;;;-144.99;100.00;61100.13;5007654;28;20357;-69
2022/07/26 06:25:00;;;;;;;;;;;;;;;-144.99;100.00;61100.13;5006485;28;19991;-69
2022/07/26 06:27:26;;;;;;;;;;;;;;;-144.99;100.00;61100.13;4998824;28;19972;-69
2022/07/26 06:29:53;;;;;;;;;;;;;;;-144.99;100.00;61100.13;5007835;28;19956;-68
2022/07/26 06:32:21;;;;;;;;;;;;;;;-144.99;100.00;61100.13;5007765;28;20495;-68
2022/07/26 06:34:48;;;;;;;;;;;;;;;-144.99;100.00;61100.13;5008443;28;19929;-68
2022/07/26 06:37:14;;;;;;;;;;;;;;;-144.99;100.00;61100.13;5008816;28;20526;-68
2022/07/26 06:39:41;;;;;;;;;;;;;;;-144.99;100.00;61100.13;5007103;28;20304;-69
2022/07/26 06:42:07;;;;;;;;;;;;;;;-144.99;100.00;61100.13;5007874;28;20023;-68
2022/07/26 06:44:34;;;;;;;;;;;;;;;-144.99;100.00;61100.13;5006719;28;20376;-69
2022/07/26 06:47:00;;;;;;;;;;;;;;;-144.99;100.00;61100.13;5006745;28;19945;-69
2022/07/26 06:49:28;;;;;;;;;;;;;;;-144.99;100.00;61100.13;5002063;28;20024;-67
2022/07/26 06:51:56;;;;;;;;;;;;;;;-144.99;100.00;61100.13;5008368;28;20253;-68
2022/07/26 06:54:22;;;;;;;;;;;;;;;-144.99;100.00;61100.13;4660722;28;10000080;-68
2022/07/26 06:56:49;;;;;;;;;;;;;;;-144.99;100.00;61100.13;5005712;28;20309;-68
2022/07/26 06:59:15;;;;;;;;;;;;;;;-144.99;100.00;61100.13;5004360;28;19929;-67
2022/07/26 07:01:42;;;;;;;;;;;;;;;-144.99;100.00;61100.13;5007378;28;20025;-68
2022/07/26 07:04:08;;;;;;;;;;;;;;;-144.99;100.00;61100.13;5007738;28;19975;-68
2022/07/26 07:06:36;;;;;;;;;;;;;;;-144.99;100.00;61100.13;5008331;28;20019;-67
2022/07/26 07:09:03;;;;;;;;;;;;;;;-144.99;100.00;61100.13;5007238;28;19926;-68
2022/07/26 07:11:29;;;;;;;;;;;;;;;-144.99;100.00;61100.13;5006338;28;20202;-67
2022/07/26 07:13:56;;;;;;;;;;;;;;;-144.99;100.00;61100.13;5007886;28;19936;-68
2022/07/26 07:16:22;;;;;;;;;;;;;;;-144.99;100.00;61100.13;5004999;28;19957;-68
2022/07/26 07:18:50;;;;;;;;;;;;;;;-144.99;100.00;61100.13;5006879;28;20327;-68
2022/07/26 07:21:16;;;;;;;;;;;;;;;-144.99;100.00;61100.13;5007115;28;19930;-68
2022/07/26 07:23:44;;;;;;;;;;;;;;;-144.99;100.00;61100.13;5008221;28;19953;-68
2022/07/26 07:26:11;;;;;;;;;;;;;;;-144.99;100.00;61100.13;5005809;28;20421;-68
2022/07/26 07:28:37;;;;;;;;;;;;;;;-144.99;100.00;61100.13;5006092;28;20345;-69
2022/07/26 07:31:04;;;;;;;;;;;;;;;-144.99;100.00;61100.13;5006447;28;19933;-68
2022/07/26 07:33:30;;;;;;;;;;;;;;;-144.99;100.00;61100.13;5008003;28;19930;-68
2022/07/26 07:35:57;;;;;;;;;;;;;;;-144.99;100.00;61100.13;5005387;28;19929;-68
2022/07/26 07:38:23;;;;;;;;;;;;;;;-144.99;100.00;61100.13;5006157;28;20012;-67
2022/07/26 07:40:51;;;;;;;;;;;;;;;-144.99;100.00;61100.13;5003748;28;20009;-68
2022/07/26 07:43:18;;;;;;;;;;;;;;;-144.99;100.00;61100.13;5006394;28;19932;-68
2022/07/26 07:45:44;;;;;;;;;;;;;;;-144.99;100.00;61100.13;5004973;28;20000;-68
2022/07/26 07:48:11;;;;;;;;;;;;;;;-144.99;100.00;61100.13;5004968;28;19933;-68
2022/07/26 07:50:37;;;;;;;;;;;;;;;-144.99;100.00;61100.13;5006388;28;19980;-68
2022/07/26 07:53:04;;;;;;;;;;;;;;;-144.99;100.00;61100.13;5004759;28;20414;-69
2022/07/26 07:55:30;;;;;;;;;;;;;;;-144.99;100.00;61100.13;5005107;28;19933;-67
2022/07/26 07:57:58;;;;;;;;;;;;;;;-144.99;100.00;61100.13;5005635;28;20019;-68
2022/07/26 08:00:25;;;;;;;;;;;;;;;-144.99;100.00;61100.13;5004916;28;20227;-68
2022/07/26 08:02:52;;;;;;;;;;;;;;;-144.99;100.00;61100.13;5002977;28;22428;-67
2022/07/26 08:05:18;;;;;;;;;;;;;;;-144.99;100.00;61100.13;5005959;28;19929;-67
2022/07/26 08:07:45;;;;;;;;;;;;;;;-144.99;100.00;61100.13;5004900;28;19934;-66
2022/07/26 08:10:11;;;;;;;;;;;;;;;-144.99;100.00;61100.13;5007409;28;20016;-68
2022/07/26 08:12:38;;;;;;;;;;;;;;;-144.99;100.00;61100.13;5006767;28;19926;-66
2022/07/26 08:15:07;;;;;;;;;;;;;;;-144.99;100.00;61100.13;5006324;28;20608;-67
2022/07/26 08:17:34;;;;;;;;;;;;;;;-144.99;100.00;61100.13;5006120;28;20369;-67
2022/07/26 08:20:00;;;;;;;;;;;;;;;-144.99;100.00;61100.13;5006279;28;20341;-66
2022/07/26 08:22:27;;;;;;;;;;;;;;;-144.99;100.00;61100.13;5007255;28;19926;-67
2022/07/26 08:24:53;;;;;;;;;;;;;;;-144.99;100.00;61100.13;5006125;28;19969;-68
2022/07/26 08:27:20;;;;;;;;;;;;;;;-144.99;100.00;61100.13;5005715;28;20028;-68
2022/07/26 08:29:46;;;;;;;;;;;;;;;-144.99;100.00;61100.13;5005421;28;20295;-68
2022/07/26 08:32:14;;;;;;;;;;;;;;;-144.99;100.00;61100.13;5005764;28;20331;-68
2022/07/26 08:34:41;;;;;;;;;;;;;;;-144.99;100.00;61100.13;5007298;28;20269;-67
2022/07/26 08:37:07;;;;;;;;;;;;;;;-144.99;100.00;61100.13;5006054;28;20330;-68
2022/07/26 08:39:34;;;;;;;;;;;;;;;-144.99;100.00;61100.13;5007995;28;19933;-67
2022/07/26 08:42:01;;;;;;;;;;;;;;;-144.99;100.00;61100.13;5006853;28;19980;-68
2022/07/26 08:44:29;;;;;;;;;;;;;;;-144.99;100.00;61100.13;5006598;28;19961;-67
2022/07/26 08:46:56;;;;;;;;;;;;;;;-144.99;100.00;61100.13;5003864;28;19925;-67
2022/07/26 08:49:24;;;;;;;;;;;;;;;-144.99;100.00;61100.13;5006711;28;20430;-66
2022/07/26 08:51:52;;;;;;;;;;;;;;;-144.99;100.00;61100.13;5004821;28;20007;-66
2022/07/26 08:54:19;;;;;;;;;;;;;;;-144.99;100.00;61100.13;5006330;28;19972;-66
2022/07/26 08:56:49;;;;;;;;;;;;;;;-144.99;100.00;61100.13;4999529;28;19940;-67
2022/07/26 08:59:17;;;;;;;;;;;;;;;-144.99;100.00;61100.13;5006662;28;20362;-68
2022/07/26 09:01:51;;;;;;;;;;;;;;;-144.99;100.00;61100.13;5075893;22;20451;-70
2022/07/26 09:04:18;;;;;;;;;;;;;;;-144.99;100.00;61100.13;5086106;28;19928;-69
2022/07/26 09:06:55;;;;;;;;;;;;;;;-144.99;100.00;61100.13;5073418;28;19934;-70
2022/07/26 09:09:21;;;;;;;;;;;;;;;-144.99;100.00;61100.13;5082130;28;19932;-70
2022/07/26 09:11:48;;;;;;;;;;;;;;;-144.99;100.00;61100.13;5086926;28;20278;-69
2022/07/26 09:14:14;;;;;;;;;;;;;;;-144.99;100.00;61100.13;5082190;28;19928;-68
2022/07/26 09:16:41;;;;;;;;;;;;;;;-144.99;100.00;61100.13;5086963;28;19928;-70
2022/07/26 09:19:15;;;;;;;;;;;;;;;-144.99;100.00;61100.13;5087359;28;20384;-70
2022/07/26 09:21:42;;;;;;;;;;;;;;;-144.99;100.00;61100.13;5075753;28;20403;-69
2022/07/26 09:24:10;;;;;;;;;;;;;;;-144.99;100.00;61100.13;5076335;28;19932;-69
2022/07/26 09:26:36;;;;;;;;;;;;;;;-144.99;100.00;61100.13;5076834;28;20199;-69
2022/07/26 09:29:04;;;;;;;;;;;;;;;-144.99;100.00;61100.13;5083555;28;19927;-69
2022/07/26 09:31:31;;;;;;;;;;;;;;;-144.99;100.00;61100.13;5081143;28;20062;-70
2022/07/26 09:33:58;;;;;;;;;;;;;;;-144.99;100.00;61100.13;5085556;28;19928;-69
2022/07/26 09:36:25;;;;;;;;;;;;;;;-144.99;100.00;61100.13;5086100;28;19924;-69
2022/07/26 09:38:53;;;;;;;;;;;;;;;-144.99;100.00;61100.13;5087998;28;20439;-69
2022/07/26 09:41:21;;;;;;;;;;;;;;;-144.99;100.00;61100.13;5087881;28;19924;-65
2022/07/26 09:43:48;;;;;;;;;;;;;;;-144.99;100.00;61100.13;5087490;28;20015;-65
2022/07/26 09:46:15;;;;;;;;;;;;;;;-144.99;100.00;61100.13;5089866;28;20070;-65
2022/07/26 09:48:41;;;;;;;;;;;;;;;-144.99;100.00;61100.13;5089968;28;19967;-64
2022/07/26 09:51:09;;;;;;;;;;;;;;;-144.99;100.00;61100.13;5088849;28;20301;-65
2022/07/26 09:53:39;;;;;;;;;;;;;;;-144.99;100.00;61100.13;5081603;28;19924;-65
2022/07/26 09:56:05;;;;;;;;;;;;;;;-144.99;100.00;61100.13;5088140;28;20355;-65
2022/07/26 09:58:33;;;;;;;;;;;;;;;-144.99;100.00;61100.13;4737255;28;10000324;-69
2022/07/26 10:01:00;;;;;;;;;;;;;;;-144.99;100.00;61100.13;5088159;28;19936;-69
2022/07/26 10:03:26;;;;;;;;;;;;;;;-144.99;100.00;61100.13;5084395;28;20345;-69
2022/07/26 10:05:53;;;;;;;;;;;;;;;-144.99;100.00;61100.13;5083896;28;20027;-69
2022/07/26 10:08:19;;;;;;;;;;;;;;;-144.99;100.00;61100.13;5075796;28;19974;-69
2022/07/26 10:10:48;;;;;;;;;;;;;;;-144.99;100.00;61100.13;5088399;28;19928;-69
2022/07/26 10:13:14;;;;;;;;;;;;;;;-144.99;100.00;61100.13;5077340;28;20460;-69
2022/07/26 10:15:44;;;;;;;;;;;;;;;-144.99;100.00;61100.13;5081382;28;19978;-69
2022/07/26 10:18:11;;;;;;;;;;;;;;;-144.99;100.00;61100.13;5088784;28;20023;-69
2022/07/26 10:20:39;;;;;;;;;;;;;;;-144.99;100.00;61100.13;5077656;28;20012;-69
2022/07/26 10:23:25;;;;;;;;;;;;;;;-144.99;100.00;61100.13;5086053;28;19988;-72
2022/07/26 10:25:52;;;;;;;;;;;;;;;-144.99;100.00;61100.13;5078748;28;19929;-69
2022/07/26 10:28:25;;;;;;;;;;;;;;;-144.99;100.00;61100.13;5080907;28;20385;-68
2022/07/26 10:31:14;;;;;;;;;;;;;;;-144.99;100.00;61100.13;5080892;28;20001;-69
2022/07/26 10:33:42;;;;;;;;;;;;;;;-144.99;100.00;61100.13;5082421;28;19928;-69
2022/07/26 10:36:21;;;;;;;;;;;;;;;-144.99;100.00;61100.13;5076023;28;19997;-69
2022/07/26 10:38:57;;;;;;;;;;;;;;;-144.99;100.00;61100.13;5087269;28;19940;-68
2022/07/26 10:41:31;;;;;;;;;;;;;;;-144.99;100.00;61100.13;5078365;28;19935;-68
2022/07/26 10:44:11;;;;;;;;;;;;;;;-144.99;100.00;61100.13;5080574;28;19932;-68
2022/07/26 10:46:53;;;;;;;;;;;;;;;-144.99;100.00;61100.13;5077781;28;20255;-68
2022/07/26 10:49:20;;;;;;;;;;;;;;;-144.99;100.00;61100.13;5077907;28;20100;-69
2022/07/26 10:51:46;;;;;;;;;;;;;;;-144.99;100.00;61100.13;5074680;28;20019;-69
2022/07/26 10:54:14;;;;;;;;;;;;;;;-144.99;100.00;61100.13;5086257;28;19959;-69
2022/07/26 10:56:40;;;;;;;;;;;;;;;-144.99;100.00;61100.13;5078251;28;19992;-69
2022/07/26 10:59:07;;;;;;;;;;;;;;;-144.99;100.00;61100.13;5085543;28;19950;-68
2022/07/26 11:01:34;;;;;;;;;;;;;;;-144.99;100.00;61100.13;5078566;28;19928;-68
2022/07/26 11:04:01;;;;;;;;;;;;;;;-144.99;100.00;61100.13;5079063;28;19924;-68
2022/07/26 11:06:29;;;;;;;;;;;;;;;-144.99;100.00;61100.13;5083697;28;19938;-69
2022/07/26 11:08:56;;;;;;;;;;;;;;;-144.99;100.00;61100.13;5086442;28;19928;-71
2022/07/26 11:11:29;;;;;;;;;;;;;;;-144.99;100.00;61100.13;5084528;28;19928;-70
2022/07/26 11:14:03;;;;;;;;;;;;;;;-144.99;100.00;61100.13;5080778;28;19936;-71
2022/07/26 11:16:35;;;;;;;;;;;;;;;-144.99;100.00;61100.13;5081477;28;20009;-69
2022/07/26 11:19:13;;;;;;;;;;;;;;;-144.99;100.00;61100.13;5075767;28;20048;-70
2022/07/26 11:21:40;;;;;;;;;;;;;;;-144.99;100.00;61100.13;5079132;28;19930;-70
2022/07/26 11:24:07;;;;;;;;;;;;;;;-144.99;100.00;61100.13;5079680;28;19928;-69
2022/07/26 11:26:40;;;;;;;;;;;;;;;-144.99;100.00;61100.13;5084771;28;19970;-70
2022/07/26 11:29:06;;;;;;;;;;;;;;;-144.99;100.00;61100.13;5080326;28;20398;-70
2022/07/26 11:31:37;;;;;;;;;;;;;;;-144.99;100.00;61100.13;5085980;28;20273;-69
2022/07/26 11:34:05;;;;;;;;;;;;;;;-144.99;100.00;61100.13;5085600;28;20009;-69
2022/07/26 11:36:36;;;;;;;;;;;;;;;-144.99;100.00;61100.13;5083101;28;20405;-70
2022/07/26 11:39:04;;;;;;;;;;;;;;;-144.99;100.00;61100.13;5083069;28;19932;-70
2022/07/26 11:41:31;;;;;;;;;;;;;;;-144.99;100.00;61100.13;5085070;28;19929;-70
2022/07/26 11:43:57;;;;;;;;;;;;;;;-144.99;100.00;61100.13;5086490;28;20395;-70
2022/07/26 11:46:32;;;;;;;;;;;;;;;-144.99;100.00;61100.13;5078523;28;19981;-71
2022/07/26 11:48:58;;;;;;;;;;;;;;;-144.99;100.00;61100.13;5085939;28;19928;-70
2022/07/26 11:51:25;;;;;;;;;;;;;;;-144.99;100.00;61100.13;5074323;28;19930;-70
2022/07/26 11:53:58;;;;;;;;;;;;;;;-144.99;100.00;61100.13;5082572;28;19963;-70
2022/07/26 11:56:25;;;;;;;;;;;;;;;-144.99;100.00;61100.13;5081170;28;19928;-70
2022/07/26 11:58:53;;;;;;;;;;;;;;;-144.99;100.00;61100.13;5079167;28;19974;-69
2022/07/26 12:01:21;;;;;;;;;;;;;;;-144.99;100.00;61100.13;5072969;28;19947;-70
2022/07/26 12:03:48;;;;;;;;;;;;;;;-144.99;100.00;61100.13;5078895;28;19938;-70
2022/07/26 12:06:16;;;;;;;;;;;;;;;-144.99;100.00;61100.13;5081781;28;19981;-70
2022/07/26 12:08:44;;;;;;;;;;;;;;;-144.99;100.00;61100.13;5085923;28;20143;-70
2022/07/26 12:11:12;;;;;;;;;;;;;;;-144.99;100.00;61100.13;5075222;28;19925;-70
2022/07/26 12:13:48;;;;;;;;;;;;;;;-144.99;100.00;61100.13;5076585;28;20058;-69
2022/07/26 12:16:30;;;;;;;;;;;;;;;-144.99;100.00;61100.13;5083535;28;20120;-69
2022/07/26 12:18:56;;;;;;;;;;;;;;;-144.99;100.00;61100.13;5086577;28;20234;-69
2022/07/26 12:21:37;;;;;;;;;;;;;;;-144.99;100.00;61100.13;5078829;28;20039;-69